South Sound, Washington
Current Conditions -  °F | °C
As of 11:54 AM on Thursday 23 Oct 2014 (Local Time) from KOLM Reporting Station
Broken Clouds Broken Clouds  
Wind Chill: 55°   Ceiling: 7000
Heat Index: 55°   Visibility: 10mi
Dew Point: 50°   Wind: 13mph
Humidity: 83%   Direction: 200°SSW
Pressure: 29.83"   Gusts: NA
Location:  46.9755°N, 122.872°W
Report Text: KOLM 231854Z 20011KT 10SM FEW020 SCT050 BKN070 13/10 A2983 RMK AO2 SLP101 T01280100
Loading
Personal Weather Stations






























Interactive Weather Map
Tropical Storm Tracking
New forecast layout! Learn more

10-Day Weather Forecast

Advertisements
Track Severe Weather on mobile